CPX947 Details

Departure: Washington Dulles International Airport (KIAD)
Arrival: Schiphol International Airport (EHAM) at N/A
Route: JCOBY3 SWANN BROSS J42 RBV LLUND BAYYS PUT WITCH ALLEX N263A JOOPY NATR BEXET DEVOL RINUS LIFFY UL975 WAL M16 DOLAS L603 LAMSO
Notes: SEASONAL FLIGHT


Current Weather Information
KIAD 231352Z 27008KT 10SM CLR 14/08 A3007 RMK AO2 SLP180 T01440078
EHAM 231355Z 07010KT 9000 NSC 14/11 Q1013 NOSIG